This is the latest recevied weather packets stored in our database for station/object KE1THD. If no packets are shown the sender has not sent any weather packets the latest 10 day(s).
| Time | Temp. | Humidity | Pressure | Rain* | Wind** | Luminosity | Snow |
|---|---|---|---|---|---|---|---|
| 1777755344 | 15° C | 29% | 1017.9 hPa | 0 mm | - | 664 W/m² | - |
| 1777755042 | 15° C | 30% | 1017.8 hPa | 0 mm | - | 235 W/m² | - |
| 1777754738 | 15° C | 31% | 1018 hPa | 0 mm | - | 343 W/m² | - |
| 1777754436 | 15° C | 30% | 1018 hPa | 0 mm | - | 384 W/m² | - |
| 1777754133 | 15° C | 29% | 1018.1 hPa | 0 mm | - | 186 W/m² | - |
| 1777753830 | 15.56° C | 31% | 1018.2 hPa | 0 mm | - | 344 W/m² | - |
| 1777753526 | 14.44° C | 31% | 1018.2 hPa | 0 mm | - | 692 W/m² | - |
| 1777753225 | 14.44° C | 30% | 1018.4 hPa | 0 mm | - | 724 W/m² | - |
| 1777752920 | 15° C | 31% | 1018.3 hPa | 0 mm | - | 331 W/m² | - |
| 1777752617 | 15° C | 32% | 1018.3 hPa | 0 mm | - | 710 W/m² | - |
| 1777752313 | 15° C | 30% | 1018.5 hPa | 0 mm | - | 723 W/m² | - |
| 1777752011 | 14.44° C | 32% | 1018.5 hPa | 0 mm | - | 723 W/m² | - |
| 1777751708 | 14.44° C | 31% | 1018.3 hPa | 0 mm | - | 761 W/m² | - |
| 1777751404 | 14.44° C | 30% | 1018.6 hPa | 0 mm | - | 850 W/m² | - |
| 1777751101 | 16.11° C | 28% | 1018.4 hPa | 0 mm | - | 864 W/m² | - |
| 1777750796 | 15.56° C | 29% | 1018.7 hPa | 0 mm | - | 868 W/m² | - |
| 1777750495 | 15.56° C | 29% | 1018.7 hPa | 0 mm | - | 440 W/m² | - |
| 1777750190 | 14.44° C | 30% | 1019 hPa | 0 mm | - | 725 W/m² | - |
| 1777749887 | 14.44° C | 33% | 1018.8 hPa | 0 mm | - | 245 W/m² | - |
| 1777749583 | 14.44° C | 31% | 1019.1 hPa | 0 mm | - | 810 W/m² | - |
| 1777749281 | 13.89° C | 31% | 1019 hPa | 0 mm | - | 879 W/m² | - |
| 1777748979 | 13.89° C | 31% | 1019.1 hPa | 0 mm | - | 880 W/m² | - |
| 1777748676 | 15° C | 31% | 1019.1 hPa | 0 mm | - | 903 W/m² | - |
| 1777748372 | 14.44° C | 30% | 1018.9 hPa | 0 mm | - | 405 W/m² | - |
| 1777748067 | 13.89° C | 33% | 1019.3 hPa | 0 mm | - | 868 W/m² | - |
* Rain latest hour (hover to see other rain measurements)
** Current wind speed in m/s (hover to see current wind gust speed)